Anthony, Kansas
Current Conditions -  °F | °C
As of 4:30 AM on Monday 20 Oct 2014 (Local Time) from KAVK Reporting Station
Few Clouds Few Clouds  
Wind Chill: 61°   Ceiling: Unl
Heat Index: 61°   Visibility: 10mi
Dew Point: 57°   Wind: 12mph
Humidity: 88%   Direction: 220°SW
Pressure: 29.99"   Gusts: NA
Location:  37.15°N, 98.03°W
Report Text: KAVK 200930Z AUTO 22010KT 10SM FEW070 16/14 A2999 RMK AO2
Loading
Personal Weather Stations






























Interactive Weather Map New forecast layout! Learn more

10-Day Weather Forecast

Advertisements
Track Severe Weather on mobile